CPV4 weather

Public forecast

Using degrees Celsius for public forecast. Weather courtesy of forecast.io.

Closest aviation weather report (METAR) to Mansfield Airport

Closest report is CFB Borden, 8.8 nm (16.3 km) NNE. Retrieved 2020/08/13 13:00 UTC (14 minutes ago):

CYBN 131300Z AUTO 00000KT 9SM CLR 20/18 A3019 RMK SLP224

Closest aviation forecast (TAF) to Mansfield Airport

Closest forecast is CFB Borden, 8.8 nm (16.3 km) NNE. Retrieved 2020/08/13 12:33 UTC (41 minutes ago):

TAF TAF CYBN 131130Z 1312/1324 VRB03KT 4SM BR SKC BECMG 1312/1313 P6SM NSW SKC FM131800 07005KT P6SM FEW040 BKN200 RMK FCST BASED ON AUTO OBS NXT FCST BY 131800Z